• Join FlightAware (Why Join?)
  • Login
  • US Flag 
11:36AM EDT


 

Airport Tracker/Info


-or-


 

Live Flight TrackerFlight Track Log ✈ NGF4JR ✈ 15-Sep-2013 ✈ KCKB - KINT

Flight Track Log - Related Links

Times and Time Zones

All times are in EDT time to prevent confusion due to time zone crossing. See the NGF4JR flight status page for this flight to view local times or setup timezone preferences in your user account.

Time Position Orientation Groundspeed Altitude Reporting Facility
EDT Latitude Longitude Course Direction KTS MPH feet Rate Location/Type
09:49AM 39.2306 -80.2333 179° South 101 116 4,000  Level Cleveland Center
09:50AM 39.2028 -80.2369 186° South 101 116 5,000 840 Climbing Cleveland Center
09:51AM 39.1758 -80.2369 180° South 99 114 5,800 780 Climbing Cleveland Center
09:52AM 39.0856 -80.2271 180° South  Level Estimated
09:52AM 39.1425 -80.2353 178° South 99 114 6,700  Level Cleveland Center
09:53AM 39.0432 -80.2261 179° South  Level FlightAware Approximate
09:53AM 39.1147 -80.2378 184° South 100 115 7,400  Level Cleveland Center
09:54AM 39.0007 -80.2251 179° South  Level FlightAware Approximate
09:54AM 39.0844 -80.2364 178° South 103 119 7,900  Level Cleveland Center
09:55AM 39.0511 -80.2344 177° South 112 129 8,100 60 Climbing Cleveland Center
09:56AM 39.0072 -80.2400 186° South 140 161 8,100  Level Cleveland Center
09:57AM 38.9625 -80.2389 179° South 155 178 8,100  Level Cleveland Center
09:58AM 38.9178 -80.2350 176° South 159 183 8,100  Level Cleveland Center
09:59AM 38.8644 -80.2358 181° South 160 184 8,100  Level Cleveland Center
10:00AM 38.8197 -80.2356 180° South 160 184 8,100  Level Cleveland Center
10:01AM 38.7747 -80.2353 180° South 162 186 8,100  Level Cleveland Center
10:02AM 38.7292 -80.2361 181° South 162 186 8,100  Level Cleveland Center
10:03AM 38.6850 -80.2397 184° South 161 185 8,100  Level Cleveland Center
10:04AM 38.6403 -80.2408 181° South 160 184 8,100 -60 Level Cleveland Center
10:05AM 38.5856 -80.2350 175° South 162 186 8,000 -120 Descending Cleveland Center
10:06AM 38.5408 -80.2328 178° South 163 188 7,900  Descending Cleveland Center
10:07AM 38.4833 -80.2467 191° South 160 184 8,000  Climbing Washington Center
10:09AM 38.4375 -80.2464 180° South 160 184 8,000  Level Washington Center
10:10AM 38.3936 -80.2464 180° South 160 184 8,000  Level Washington Center
10:10AM 38.3542 -80.2439 177° South 160 184 8,000  Level Washington Center
10:11AM 38.3083 -80.2411 177° South 160 184 8,000  Level Washington Center
10:12AM 38.2644 -80.2461 185° South 160 184 8,000  Level Washington Center
10:14AM 38.2167 -80.2433 177° South 160 184 8,000  Level Washington Center
10:14AM 38.1664 -80.2453 182° South 160 184 8,000  Level Washington Center
10:15AM 38.1225 -80.2453 180° South 160 184 8,000  Level Washington Center
10:16AM 38.0769 -80.2425 177° South 160 184 8,000  Level Washington Center
10:17AM 38.0331 -80.2397 177° South 160 184 8,000  Level Washington Center
10:18AM 37.9914 -80.2397 180° South 160 184 8,000  Level Washington Center
10:20AM 37.9456 -80.2397 180° South 160 184 8,000  Level Washington Center
10:21AM 37.9000 -80.2342 175° South 160 184 8,000  Level Washington Center
10:21AM 37.8497 -80.2336 180° South 160 184 8,000  Level Washington Center
10:22AM 37.8036 -80.2414 188° South 165 190 8,000  Level Washington Center
10:23AM 37.7578 -80.2411 180° South 165 190 8,000  Level Washington Center
10:24AM 37.7139 -80.2411 180° South 165 190 8,000  Level Washington Center
10:26AM 37.6703 -80.2383 177° South 160 184 8,000  Level Washington Center
10:27AM 37.6264 -80.2383 180° South 160 184 8,000  Level Washington Center
10:27AM 37.5806 -80.2356 177° South 160 184 8,000  Level Washington Center
10:28AM 37.5283 -80.2375 182° South 160 184 8,000  Level Washington Center
10:30AM 37.4825 -80.2400 182° South 160 184 8,000  Level Washington Center
10:31AM 37.4367 -80.2372 177° South 160 184 8,000  Level Washington Center
10:31AM 37.3908 -80.2369 180° South 160 184 8,000  Level Washington Center
10:32AM 37.3511 -80.2372 180° South 160 184 8,000  Level Washington Center
10:34AM 37.3053 -80.2369 180° South 160 184 8,000  Level Washington Center
10:34AM 37.2594 -80.2369 180° South 160 184 8,000  Level Washington Center
10:35AM 37.2092 -80.2364 179° South 160 184 8,000  Level Washington Center
10:36AM 37.1656 -80.2336 177° South 160 184 8,000  Level Washington Center
10:38AM 37.1197 -80.2361 182° South 160 184 8,000  Level Washington Center
10:38AM 37.0736 -80.2361 180° South 160 184 8,000  Level Washington Center
10:40AM 37.0305 -80.2339 178° South  Level FlightAware Approximate
10:47AM 36.7338 -80.2184 178° South  Level FlightAware Approximate
10:48AM 36.6911 -80.2167 180° South  Level FlightAware Approximate
10:49AM 36.6486 -80.2167 180° South  Level FlightAware Approximate
10:50AM 36.6062 -80.2167 180° South  Level FlightAware Approximate
10:51AM 36.5638 -80.2167 180° South  Level FlightAware Approximate
10:52AM 36.5214 -80.2167 180° South  Level FlightAware Approximate
10:53AM 36.4790 -80.2167 180° South  Level FlightAware Approximate
10:54AM 36.4366 -80.2167 180° South  Level FlightAware Approximate
10:55AM 36.3941 -80.2167 180° South  Level FlightAware Approximate
10:56AM 36.3517 -80.2167 180° South  Level FlightAware Approximate
10:57AM 36.3093 -80.2167 180° South  Level FlightAware Approximate
10:58AM 36.2669 -80.2167 180° South  Level FlightAware Approximate
10:59AM 36.2244 -80.2167 180° South  Level FlightAware Approximate
11:00AM 36.1820 -80.2167 180° South  Level FlightAware Approximate
11:01AM 36.1396 -80.2167 180° South  Level FlightAware Approximate
11:02AM 36.1333 -80.2167 North  Level FlightAware Approximate
11:03AM 36.1337 -80.2220 North  Level Estimated
11:04AM 36.1333 -80.2167 North  Level FlightAware Approximate
11:05AM 36.1337 -80.2220 North  Level Estimated
11:06AM 36.1333 -80.2167 North  Level FlightAware Approximate
11:07AM 36.1337 -80.2220 North  Level Estimated
11:08AM 36.1333 -80.2167 North  Level FlightAware Approximate
11:09AM 36.1337 -80.2220 North  Level Estimated